Time;durP1;ratioP1;P1;durP2;ratioP2;P2;SDS_P1;SDS_P2;PMS_P1;PMS_P2;Temp;Humidity;BMP_temperature;BMP_pressure;BME280_temperature;BME280_humidity;BME280_pressure;Samples;Min_cycle;Max_cycle;Signal;HPM_P1;HPM_P2
2021/01/22 00:01:36;;;;;;;33.28;18.77;;;;;;;6.10;59.39;98786.91;5099395;28;20082;-67
2021/01/22 00:04:04;;;;;;;32.88;18.38;;;;;;;6.13;59.08;98797.16;5104345;28;20051;-67
2021/01/22 00:06:30;;;;;;;39.00;18.75;;;;;;;6.17;59.25;98790.06;5100452;28;20502;-67
2021/01/22 00:08:56;;;;;;;34.45;17.35;;;;;;;6.21;59.02;98792.47;5106079;28;20043;-67
2021/01/22 00:11:22;;;;;;;37.78;19.55;;;;;;;6.21;58.95;98787.25;5095801;28;20083;-67
2021/01/22 00:13:48;;;;;;;39.75;18.85;;;;;;;6.18;59.08;98789.16;5101866;28;20052;-67
2021/01/22 00:16:14;;;;;;;38.97;19.85;;;;;;;6.14;59.33;98780.63;5102144;28;20834;-67
2021/01/22 00:18:40;;;;;;;39.00;19.08;;;;;;;6.11;59.15;98785.97;5104262;28;20413;-68
2021/01/22 00:21:07;;;;;;;34.33;18.60;;;;;;;6.07;59.40;98772.25;5102219;28;20130;-67
2021/01/22 00:23:37;;;;;;;38.80;19.52;;;;;;;6.04;59.45;98766.34;5098361;28;20143;-67
2021/01/22 00:26:03;;;;;;;37.17;18.40;;;;;;;5.99;59.43;98766.53;5106387;28;20085;-67
2021/01/22 00:28:29;;;;;;;35.67;19.48;;;;;;;5.98;59.45;98766.59;5096621;28;20406;-67
2021/01/22 00:30:56;;;;;;;35.13;18.48;;;;;;;5.95;59.48;98767.56;5107429;28;20131;-68
2021/01/22 00:33:22;;;;;;;39.42;19.52;;;;;;;5.93;59.64;98763.34;5097889;28;20410;-68
2021/01/22 00:35:48;;;;;;;37.75;20.05;;;;;;;5.90;59.66;98761.75;5104935;28;20086;-69
2021/01/22 00:38:15;;;;;;;42.15;19.42;;;;;;;5.91;59.78;98760.81;5095443;28;20054;-68
2021/01/22 00:40:41;;;;;;;36.60;20.35;;;;;;;5.98;59.35;98770.03;5101290;28;20044;-75
2021/01/22 00:43:07;;;;;;;39.00;20.52;;;;;;;6.05;59.15;98758.47;5106158;28;20082;-76
2021/01/22 00:45:33;;;;;;;37.25;19.63;;;;;;;6.13;59.03;98768.53;5102073;28;20048;-74
2021/01/22 00:47:59;;;;;;;37.28;18.88;;;;;;;6.18;58.90;98769.19;5103820;28;20116;-74
2021/01/22 00:50:25;;;;;;;41.35;20.42;;;;;;;6.18;58.98;98768.34;5095239;28;20512;-74
2021/01/22 00:52:52;;;;;;;34.85;18.13;;;;;;;6.15;59.11;98769.31;5105120;28;20354;-74
2021/01/22 00:55:19;;;;;;;40.70;20.75;;;;;;;6.13;59.25;98768.53;5096487;28;20089;-74
2021/01/22 00:57:45;;;;;;;41.55;20.45;;;;;;;6.07;59.26;98766.22;5102555;28;20054;-73
2021/01/22 01:00:13;;;;;;;36.25;19.75;;;;;;;5.95;59.56;98762.38;5095708;28;20055;-73
2021/01/22 01:02:39;;;;;;;39.75;20.80;;;;;;;5.82;59.83;98759.41;5101027;28;20093;-73
2021/01/22 01:05:07;;;;;;;36.05;19.85;;;;;;;5.72;60.13;98752.09;5102159;28;20510;-73
2021/01/22 01:07:33;;;;;;;42.13;20.00;;;;;;;5.61;60.21;98747.31;5104834;28;20036;-74
2021/01/22 01:09:59;;;;;;;36.72;18.98;;;;;;;5.55;60.39;98742.38;5099537;28;20046;-74
2021/01/22 01:12:26;;;;;;;37.50;19.67;;;;;;;5.50;60.50;98746.94;5096348;28;20071;-74
2021/01/22 01:14:53;;;;;;;38.72;21.45;;;;;;;5.46;60.41;98743.63;5100142;28;20052;-74
2021/01/22 01:17:19;;;;;;;35.13;19.08;;;;;;;5.47;60.56;98739.28;5097412;28;20044;-74
2021/01/22 01:19:45;;;;;;;35.38;18.88;;;;;;;5.45;60.50;98733.31;5107431;28;20043;-76
2021/01/22 01:22:11;;;;;;;39.15;19.42;;;;;;;5.41;60.70;98731.72;5093152;28;20040;-76
2021/01/22 01:24:37;;;;;;;38.65;18.15;;;;;;;5.34;60.71;98731.13;5106563;28;20149;-76
2021/01/22 01:27:03;;;;;;;35.50;20.85;;;;;;;5.30;61.02;98728.72;5106708;28;20134;-75
2021/01/22 01:29:30;;;;;;;37.00;19.85;;;;;;;5.24;61.15;98726.41;5106416;28;20074;-74
2021/01/22 01:31:57;;;;;;;31.52;18.58;;;;;;;5.19;61.20;98714.41;5108054;28;20042;-76
2021/01/22 01:34:23;;;;;;;38.45;19.15;;;;;;;5.15;61.25;98718.03;5101039;28;20043;-77
2021/01/22 01:36:49;;;;;;;37.92;19.95;;;;;;;5.11;61.29;98711.28;5104033;28;20084;-76
2021/01/22 01:39:15;;;;;;;39.80;19.88;;;;;;;5.07;61.35;98714.09;5103507;28;20152;-76
2021/01/22 01:41:41;;;;;;;34.03;18.10;;;;;;;5.02;61.56;98711.69;5106165;28;20127;-74
2021/01/22 01:44:07;;;;;;;35.70;18.50;;;;;;;4.97;61.62;98700.59;5099612;28;20467;-74
2021/01/22 01:46:34;;;;;;;37.30;19.17;;;;;;;4.92;61.51;98710.34;5098443;28;20093;-75
2021/01/22 01:49:01;;;;;;;33.85;18.55;;;;;;;4.89;61.65;98706.13;5102353;28;20093;-74
2021/01/22 01:51:27;;;;;;;38.08;18.08;;;;;;;4.87;61.75;98696.69;5103186;28;20092;-74
2021/01/22 01:53:54;;;;;;;40.30;19.45;;;;;;;4.85;61.80;98698.53;5095945;28;20052;-75
2021/01/22 01:56:21;;;;;;;36.75;19.60;;;;;;;4.82;61.91;98699.50;5102353;28;20058;-74
2021/01/22 01:58:48;;;;;;;39.25;18.90;;;;;;;4.79;61.61;98694.41;5097413;28;20048;-74
2021/01/22 02:01:17;;;;;;;43.22;19.50;;;;;;;4.76;61.77;98697.13;5095260;28;20085;-74
2021/01/22 02:03:44;;;;;;;40.30;19.98;;;;;;;4.73;61.81;98696.41;5104666;28;20052;-75
2021/01/22 02:06:10;;;;;;;36.78;19.05;;;;;;;4.72;61.97;98697.31;5095905;28;20047;-74
2021/01/22 02:08:37;;;;;;;38.00;19.23;;;;;;;4.68;61.93;98682.75;5101644;28;20047;-74
2021/01/22 02:11:06;;;;;;;36.53;19.63;;;;;;;4.65;62.00;98685.47;5102689;28;20052;-75
2021/01/22 02:13:33;;;;;;;40.17;20.40;;;;;;;4.62;61.97;98690.78;5104220;28;20277;-74
2021/01/22 02:16:00;;;;;;;39.33;21.08;;;;;;;4.58;62.02;98684.84;5101901;28;20135;-73
2021/01/22 02:18:27;;;;;;;36.67;20.13;;;;;;;4.57;61.94;98678.81;5099967;28;20054;-73
2021/01/22 02:21:04;;;;;;;40.33;19.13;;;;;;;4.59;62.15;98682.22;5104151;28;20040;-73
2021/01/22 02:23:34;;;;;;;37.63;20.75;;;;;;;4.72;61.69;98681.72;5104411;28;20134;-73
2021/01/22 02:26:16;;;;;;;45.20;21.42;;;;;;;4.77;61.38;98682.38;5097360;28;20040;-74
2021/01/22 02:28:45;;;;;;;34.33;20.10;;;;;;;4.79;61.43;98672.78;5107318;28;20059;-75
2021/01/22 02:31:14;;;;;;;44.78;20.40;;;;;;;4.74;61.65;98670.38;5103737;28;20417;-75
2021/01/22 02:33:44;;;;;;;39.70;20.17;;;;;;;4.71;61.75;98657.50;5105666;28;20402;-75
2021/01/22 02:36:13;;;;;;;34.20;19.52;;;;;;;4.75;61.63;98660.84;5096423;28;20040;-75
2021/01/22 02:38:41;;;;;;;38.78;18.50;;;;;;;4.75;61.44;98658.22;5103410;28;20495;-74
2021/01/22 02:41:09;;;;;;;36.10;19.75;;;;;;;4.75;61.52;98650.44;5109254;28;20188;-74
2021/01/22 02:43:36;;;;;;;37.70;19.38;;;;;;;4.76;61.51;98642.59;5111070;28;20052;-74
2021/01/22 02:46:05;;;;;;;36.92;19.27;;;;;;;4.80;61.51;98643.34;5107780;28;20054;-74
2021/01/22 02:48:32;;;;;;;39.25;19.33;;;;;;;4.83;61.09;98632.81;5101558;28;20040;-75
2021/01/22 02:50:59;;;;;;;35.40;19.70;;;;;;;4.86;61.17;98630.94;5107794;28;20142;-75
2021/01/22 02:53:25;;;;;;;35.47;20.33;;;;;;;4.86;61.10;98623.16;5109544;28;20135;-76
2021/01/22 02:55:56;;;;;;;39.47;19.63;;;;;;;4.83;61.32;98612.06;5101630;28;20047;-76
2021/01/22 02:58:29;;;;;;;34.33;19.00;;;;;;;4.86;61.19;98611.94;5101371;28;20048;-76
2021/01/22 03:01:03;;;;;;;41.20;18.20;;;;;;;4.81;60.98;98596.53;5097431;28;20044;-75
2021/01/22 03:03:40;;;;;;;37.08;17.88;;;;;;;4.81;61.34;98603.50;5105971;28;20558;-75
2021/01/22 03:06:09;;;;;;;35.03;18.48;;;;;;;4.81;61.07;98600.91;5102192;28;20498;-74
2021/01/22 03:08:37;;;;;;;36.45;19.30;;;;;;;4.80;61.32;98600.06;5097792;28;20051;-75
2021/01/22 03:11:07;;;;;;;34.08;18.10;;;;;;;4.80;61.17;98586.22;5097224;28;20047;-75
2021/01/22 03:13:33;;;;;;;36.65;18.75;;;;;;;4.86;61.02;98588.56;5102250;28;20123;-73
2021/01/22 03:16:00;;;;;;;36.55;19.13;;;;;;;4.91;60.78;98578.81;5109862;28;20058;-74
2021/01/22 03:18:26;;;;;;;40.20;18.20;;;;;;;4.93;60.90;98597.78;5104483;28;20170;-74
2021/01/22 03:20:53;;;;;;;37.55;17.85;;;;;;;4.91;60.50;98594.41;5103482;28;20143;-74
2021/01/22 03:23:19;;;;;;;35.50;18.05;;;;;;;4.90;60.94;98590.13;5103596;28;20059;-69
2021/01/22 03:25:46;;;;;;;33.03;18.65;;;;;;;4.91;60.74;98604.78;5107422;28;20135;-67
2021/01/22 03:28:14;;;;;;;38.08;19.95;;;;;;;4.94;60.56;98596.88;5101647;28;20521;-68
2021/01/22 03:30:40;;;;;;;36.92;18.88;;;;;;;4.98;60.62;98595.81;5104292;28;20093;-68
2021/01/22 03:33:06;;;;;;;36.65;17.52;;;;;;;4.98;60.49;98606.22;5110404;28;20054;-67
2021/01/22 03:35:33;;;;;;;35.92;19.05;;;;;;;5.02;60.42;98589.63;5103607;28;20058;-68
2021/01/22 03:38:00;;;;;;;31.33;17.10;;;;;;;5.00;60.55;98582.75;5100902;28;20044;-68
2021/01/22 03:40:26;;;;;;;32.90;18.15;;;;;;;4.98;60.36;98572.44;5109418;28;20098;-68
2021/01/22 03:42:52;;;;;;;33.40;17.42;;;;;;;4.96;60.34;98566.47;5108723;28;20054;-68
2021/01/22 03:45:18;;;;;;;36.80;17.50;;;;;;;4.97;60.30;98577.72;5100560;28;20050;-68
2021/01/22 03:47:44;;;;;;;35.38;17.15;;;;;;;4.97;60.56;98573.34;5099204;28;20058;-67
2021/01/22 03:50:11;;;;;;;36.78;17.20;;;;;;;5.01;60.49;98569.75;5109355;28;20134;-67
2021/01/22 03:52:37;;;;;;;31.52;16.23;;;;;;;5.07;60.23;98571.22;5105747;28;20048;-68
2021/01/22 03:55:06;;;;;;;32.28;16.83;;;;;;;5.13;60.31;98570.97;5098917;28;20074;-68
2021/01/22 03:57:32;;;;;;;37.38;16.80;;;;;;;5.20;59.69;98565.44;5101757;28;20048;-67
2021/01/22 03:59:58;;;;;;;34.78;16.02;;;;;;;5.26;59.64;98568.69;5101179;28;20092;-66
2021/01/22 04:02:24;;;;;;;28.88;15.85;;;;;;;5.25;60.18;98580.84;5099688;28;20586;-67
2021/01/22 04:04:50;;;;;;;31.15;17.00;;;;;;;5.25;59.88;98580.84;5101141;28;20052;-67
2021/01/22 04:07:16;;;;;;;32.22;16.95;;;;;;;5.22;59.84;98557.59;5096782;28;20089;-67
2021/01/22 04:09:42;;;;;;;27.35;16.50;;;;;;;5.25;59.77;98554.84;5105372;28;20050;-68
2021/01/22 04:12:09;;;;;;;31.00;15.90;;;;;;;5.30;59.60;98560.69;5108701;28;20413;-67
2021/01/22 04:14:36;;;;;;;24.88;15.35;;;;;;;5.36;59.54;98564.75;5110705;28;20126;-67
2021/01/22 04:17:02;;;;;;;25.60;14.15;;;;;;;5.43;59.22;98556.66;5098840;28;20049;-66
2021/01/22 04:19:28;;;;;;;26.73;14.85;;;;;;;5.48;59.22;98556.44;5106601;28;20488;-67
2021/01/22 04:21:55;;;;;;;30.63;16.35;;;;;;;5.51;59.04;98549.34;5106388;28;20043;-67
2021/01/22 04:24:21;;;;;;;26.75;15.38;;;;;;;5.53;58.84;98546.66;5107240;28;20402;-67
2021/01/22 04:26:47;;;;;;;26.35;15.50;;;;;;;5.50;58.88;98534.66;5095044;28;20047;-67
2021/01/22 04:29:14;;;;;;;30.23;16.05;;;;;;;5.43;59.06;98535.00;5102883;28;20479;-67
2021/01/22 04:31:41;;;;;;;28.38;15.95;;;;;;;5.35;59.28;98537.94;5104662;27;20035;-67
2021/01/22 04:34:07;;;;;;;28.08;16.10;;;;;;;5.30;59.50;98533.84;5100283;28;20040;-66
2021/01/22 04:36:34;;;;;;;35.25;20.27;;;;;;;5.23;59.46;98537.66;5103883;28;20043;-67
2021/01/22 04:39:00;;;;;;;47.92;27.50;;;;;;;5.20;59.84;98539.47;5105319;28;20052;-67
2021/01/22 04:41:27;;;;;;;37.85;20.25;;;;;;;5.20;59.47;98533.41;5104081;28;20131;-67
2021/01/22 04:43:54;;;;;;;34.58;16.77;;;;;;;5.22;59.44;98531.59;5108367;28;20462;-67
2021/01/22 04:46:22;;;;;;;32.65;16.98;;;;;;;5.26;59.40;98529.72;5105141;28;20044;-67
2021/01/22 04:48:49;;;;;;;27.38;16.30;;;;;;;5.31;59.27;98527.75;5102529;28;20039;-66
2021/01/22 04:51:16;;;;;;;26.17;14.68;;;;;;;5.31;59.31;98512.16;5101989;28;20498;-67
2021/01/22 04:53:48;;;;;;;23.08;14.55;;;;;;;5.27;59.34;98503.66;5104091;28;20448;-68
2021/01/22 04:56:17;;;;;;;23.95;13.88;;;;;;;5.27;59.51;98502.81;5102665;28;20044;-67
2021/01/22 04:58:49;;;;;;;24.88;13.80;;;;;;;5.25;59.42;98494.25;5106078;28;20055;-68
2021/01/22 05:01:16;;;;;;;26.92;13.38;;;;;;;5.27;59.50;98495.03;5095929;28;20442;-68
2021/01/22 05:03:44;;;;;;;25.67;14.50;;;;;;;5.21;59.38;98488.34;5096262;28;20039;-67
2021/01/22 05:06:10;;;;;;;22.10;14.30;;;;;;;5.20;59.48;98486.63;5093234;28;20699;-68
2021/01/22 05:08:36;;;;;;;27.15;14.93;;;;;;;5.19;59.68;98485.81;5095223;28;20134;-67
2021/01/22 05:11:02;;;;;;;31.35;15.52;;;;;;;5.20;59.38;98490.13;5093598;28;20082;-68
2021/01/22 05:13:28;;;;;;;32.53;14.52;;;;;;;5.21;59.67;98493.56;5098212;28;20047;-68
2021/01/22 05:16:11;;;;;;;23.33;13.60;;;;;;;5.20;59.57;98497.03;5094526;28;20048;-69
2021/01/22 05:18:38;;;;;;;27.92;13.77;;;;;;;5.23;59.41;98490.88;5098428;28;20044;-67
2021/01/22 05:21:09;;;;;;;31.25;14.27;;;;;;;5.23;59.39;98494.31;5097619;28;20105;-67
2021/01/22 05:23:37;;;;;;;;;;;;;;;5.39;59.17;98500.50;5099662;28;20448;-68
2021/01/22 05:26:06;;;;;;;25.30;12.88;;;;;;;5.27;59.24;98506.25;5093724;28;19920;-68
2021/01/22 05:28:34;;;;;;;24.80;13.82;;;;;;;5.26;59.40;98498.53;5095997;28;20051;-67
2021/01/22 05:31:01;;;;;;;26.05;13.52;;;;;;;5.28;59.49;98499.31;5096962;28;20052;-66
2021/01/22 05:33:27;;;;;;;23.58;13.63;;;;;;;5.23;59.46;98496.09;5099863;28;20077;-66
2021/01/22 05:35:54;;;;;;;27.08;12.93;;;;;;;5.17;59.86;98487.63;5097765;28;20426;-67
2021/01/22 05:38:38;;;;;;;28.15;13.15;;;;;;;5.11;60.12;98495.69;5100065;28;20050;-67
2021/01/22 05:41:07;;;;;;;26.48;13.30;;;;;;;5.07;59.99;98491.56;5093350;28;20130;-66
2021/01/22 05:43:35;;;;;;;19.40;12.23;;;;;;;5.03;60.19;98492.59;5092426;28;20433;-66
2021/01/22 05:46:01;;;;;;;23.05;12.23;;;;;;;4.98;60.42;98499.72;5100908;28;20478;-68
2021/01/22 05:48:27;;;;;;;23.40;12.30;;;;;;;4.97;60.44;98498.03;5093573;28;20127;-68
2021/01/22 05:50:55;;;;;;;24.50;11.80;;;;;;;4.96;60.50;98504.16;5092585;28;20548;-68
2021/01/22 05:53:22;;;;;;;21.98;12.55;;;;;;;4.97;60.50;98497.19;5092027;28;20047;-66
2021/01/22 05:56:05;;;;;;;21.10;12.93;;;;;;;4.98;60.93;98494.53;5097616;28;20311;-65
2021/01/22 05:58:31;;;;;;;20.23;11.45;;;;;;;5.07;60.34;98507.13;5094273;28;20036;-65
2021/01/22 06:01:11;;;;;;;22.20;12.48;;;;;;;5.12;60.09;98502.56;5097113;28;20040;-68
2021/01/22 06:03:38;;;;;;;20.77;11.32;;;;;;;5.19;60.28;98493.59;5093911;28;20466;-68
2021/01/22 06:06:05;;;;;;;20.95;11.38;;;;;;;5.21;60.38;98490.97;5094526;28;20047;-69
2021/01/22 06:08:32;;;;;;;19.63;11.38;;;;;;;5.23;60.49;98490.88;5095903;28;20474;-66
2021/01/22 06:11:00;;;;;;;19.27;10.93;;;;;;;5.23;60.48;98485.69;5094240;28;20142;-65
2021/01/22 06:13:28;;;;;;;21.42;10.93;;;;;;;5.26;60.38;98491.59;5099227;28;20051;-71
2021/01/22 06:15:56;;;;;;;19.55;11.15;;;;;;;5.35;60.48;98505.91;5090720;28;20135;-69
2021/01/22 06:18:28;;;;;;;23.42;10.95;;;;;;;5.40;60.08;98494.38;5097188;28;20054;-70
2021/01/22 06:21:09;;;;;;;23.45;11.32;;;;;;;5.40;60.32;98502.19;5092282;28;20457;-73
2021/01/22 06:23:36;;;;;;;17.03;9.70;;;;;;;5.44;60.17;98511.56;5103564;28;20048;-69
2021/01/22 06:26:03;;;;;;;22.02;11.77;;;;;;;5.48;60.23;98507.06;5098048;28;20491;-71
2021/01/22 06:28:31;;;;;;;25.38;12.88;;;;;;;5.53;60.04;98505.09;5091536;28;20503;-74
2021/01/22 06:30:57;;;;;;;19.70;10.48;;;;;;;5.57;60.30;98508.38;5094930;28;20051;-72
2021/01/22 06:33:24;;;;;;;18.90;11.02;;;;;;;5.61;60.13;98513.34;5099240;28;20040;-73
2021/01/22 06:35:51;;;;;;;18.27;10.48;;;;;;;5.68;60.10;98514.78;5099579;28;20075;-71
2021/01/22 06:38:22;;;;;;;16.52;9.98;;;;;;;5.69;59.92;98506.06;5092850;28;20054;-71
2021/01/22 06:40:50;;;;;;;17.10;9.70;;;;;;;5.71;59.90;98490.41;5098103;28;20055;-70
2021/01/22 06:43:16;;;;;;;19.75;10.13;;;;;;;5.69;59.96;98489.63;5096091;28;20388;-73
2021/01/22 06:45:43;;;;;;;16.35;10.40;;;;;;;5.68;60.26;98499.19;5095574;28;20119;-71
2021/01/22 06:48:10;;;;;;;14.45;8.73;;;;;;;5.73;60.09;98496.38;5092745;28;20130;-72
2021/01/22 06:50:38;;;;;;;15.32;9.23;;;;;;;5.77;59.96;98493.53;5094371;28;20086;-69
2021/01/22 06:53:09;;;;;;;17.83;10.13;;;;;;;5.86;60.00;98488.84;5099483;28;20108;-68
2021/01/22 06:56:09;;;;;;;21.00;11.13;;;;;;;6.00;59.71;98486.44;5101847;28;20413;-69
2021/01/22 06:58:36;;;;;;;17.33;9.77;;;;;;;6.18;59.17;98488.16;5100059;28;20048;-69
2021/01/22 07:01:05;;;;;;;20.52;10.32;;;;;;;6.28;58.92;98473.81;5091914;28;20422;-68
2021/01/22 07:03:47;;;;;;;16.88;9.40;;;;;;;6.36;58.71;98476.88;5096198;28;20126;-68
2021/01/22 07:06:54;;;;;;;25.08;9.95;;;;;;;6.46;58.85;98473.81;5097785;28;20043;-69
2021/01/22 07:09:21;;;;;;;13.77;9.27;;;;;;;6.59;58.12;98469.66;5099169;28;20512;-71
2021/01/22 07:11:58;;;;;;;15.05;9.30;;;;;;;6.63;58.17;98453.81;5099337;28;20051;-71
2021/01/22 07:14:41;;;;;;;15.52;8.77;;;;;;;6.75;58.20;98467.97;5104788;28;20085;-71
2021/01/22 07:17:16;;;;;;;14.48;8.57;;;;;;;6.85;57.61;98465.72;5098104;28;20035;-70
2021/01/22 07:19:50;;;;;;;15.05;8.82;;;;;;;6.94;57.76;98460.06;5100227;28;20470;-71
2021/01/22 07:22:17;;;;;;;12.93;7.88;;;;;;;7.02;57.49;98465.69;5101691;28;20058;-71
2021/01/22 07:24:46;;;;;;;18.15;9.43;;;;;;;7.13;57.20;98452.13;5102750;28;20063;-70
2021/01/22 07:27:14;;;;;;;19.33;8.95;;;;;;;7.28;56.84;98461.72;5099036;28;20051;-70
2021/01/22 07:41:41;;;;;;;19.55;12.93;;;;;;;8.21;53.92;98441.75;5088574;27;20412;-72
2021/01/22 07:44:07;;;;;;;25.63;14.90;;;;;;;8.35;53.68;98437.53;5087352;28;20052;-72
2021/01/22 07:46:44;;;;;;;23.92;12.75;;;;;;;8.34;53.60;98430.63;5086825;28;20048;-70
2021/01/22 07:49:10;;;;;;;24.92;12.07;;;;;;;8.34;53.54;98422.81;5080358;28;20048;-72
2021/01/22 07:51:37;;;;;;;22.65;11.95;;;;;;;8.40;53.54;98419.81;5083848;28;20044;-69
2021/01/22 07:54:04;;;;;;;19.83;10.68;;;;;;;8.49;53.08;98421.88;5084389;28;20501;-68
2021/01/22 07:56:34;;;;;;;19.20;10.65;;;;;;;8.50;53.30;98418.34;5088612;28;20052;-69
2021/01/22 07:59:01;;;;;;;19.70;11.23;;;;;;;8.53;53.00;98410.31;5084968;28;20040;-72
2021/01/22 08:01:28;;;;;;;26.20;13.48;;;;;;;8.52;53.37;98412.09;5084836;28;20127;-73
2021/01/22 08:03:54;;;;;;;19.33;11.25;;;;;;;8.50;53.23;98407.91;5085952;28;20491;-73
2021/01/22 08:06:20;;;;;;;16.50;9.30;;;;;;;8.49;53.31;98406.22;5086456;28;20052;-73
2021/01/22 08:08:46;;;;;;;17.20;9.00;;;;;;;8.48;53.29;98400.16;5086092;28;20101;-73
2021/01/22 08:11:19;;;;;;;16.58;10.18;;;;;;;8.44;53.42;98397.81;5086259;28;20408;-73
2021/01/22 08:13:45;;;;;;;18.88;9.82;;;;;;;8.40;53.46;98389.34;5084825;28;20403;-70
2021/01/22 08:16:13;;;;;;;15.82;8.80;;;;;;;8.25;53.90;98387.59;5088948;28;20041;-77
2021/01/22 08:18:45;;;;;;;20.33;9.15;;;;;;;8.23;53.98;98390.28;5088626;28;20042;-76
2021/01/22 08:21:11;;;;;;;16.90;9.40;;;;;;;8.39;53.49;98384.19;5088303;28;20048;-73
2021/01/22 08:23:42;;;;;;;14.45;9.57;;;;;;;8.49;53.54;98380.09;5087336;28;20060;-74
2021/01/22 08:26:09;;;;;;;16.60;8.10;;;;;;;8.72;53.02;98378.72;5086694;28;20055;-75
2021/01/22 08:28:36;;;;;;;15.65;8.15;;;;;;;9.12;52.41;98382.34;5087065;28;20048;-75
2021/01/22 08:31:03;;;;;;;15.23;8.23;;;;;;;9.41;51.59;98389.22;5084398;28;20489;-74
2021/01/22 08:45:33;;;;;;;14.50;8.75;;;;;;;9.89;49.60;98368.69;5070879;27;20380;-69
2021/01/22 08:47:59;;;;;;;13.00;8.30;;;;;;;9.86;49.64;98374.13;5067279;28;20041;-73
2021/01/22 08:50:26;;;;;;;14.77;7.40;;;;;;;9.98;49.64;98373.31;5070033;28;20531;-73
2021/01/22 08:53:04;;;;;;;13.32;7.70;;;;;;;10.61;48.70;98364.75;5068675;28;20045;-72
2021/01/22 08:55:30;;;;;;;17.98;7.80;;;;;;;10.57;48.75;98362.44;5070373;28;20131;-70
2021/01/22 08:58:01;;;;;;;13.45;7.85;;;;;;;10.27;49.15;98362.75;5060262;28;20131;-71
2021/01/22 09:00:27;;;;;;;17.88;8.82;;;;;;;10.21;49.43;98358.75;5063132;28;20128;-70
2021/01/22 09:02:56;;;;;;;12.73;7.85;;;;;;;10.26;49.25;98351.44;5060611;28;20053;-72
2021/01/22 09:05:22;;;;;;;16.60;7.93;;;;;;;10.37;49.21;98355.94;5068053;28;20052;-69
2021/01/22 09:08:04;;;;;;;16.60;8.60;;;;;;;10.50;48.85;98355.94;5065845;28;20040;-69
2021/01/22 09:10:32;;;;;;;14.68;7.82;;;;;;;10.71;48.43;98359.72;5067156;28;20169;-69
2021/01/22 09:13:08;;;;;;;16.58;9.25;;;;;;;11.07;47.94;98360.75;5063164;28;20057;-69
2021/01/22 09:15:35;;;;;;;14.68;8.43;;;;;;;11.83;46.53;98363.97;5064689;28;20055;-70
2021/01/22 09:18:02;;;;;;;14.35;8.38;;;;;;;11.96;46.28;98360.44;5066369;28;20060;-70
2021/01/22 09:20:29;;;;;;;14.82;8.15;;;;;;;12.12;46.01;98361.00;5063808;28;20098;-70
2021/01/22 09:23:04;;;;;;;15.27;7.57;;;;;;;12.09;46.36;98355.97;5066024;28;20053;-70
2021/01/22 09:25:30;;;;;;;12.15;7.75;;;;;;;11.82;46.89;98350.94;5062857;28;20102;-67
2021/01/22 09:27:58;;;;;;;12.95;7.28;;;;;;;11.46;47.63;98349.19;5067436;28;20040;-67
2021/01/22 09:30:26;;;;;;;13.02;7.95;;;;;;;11.31;47.73;98343.25;5059900;28;20444;-67
2021/01/22 09:32:54;;;;;;;13.77;7.65;;;;;;;11.10;48.18;98335.13;5052308;28;20132;-67
2021/01/22 09:35:22;;;;;;;12.07;7.38;;;;;;;10.97;48.56;98315.97;5057217;28;20037;-67
2021/01/22 09:37:49;;;;;;;12.07;7.28;;;;;;;10.95;48.51;98320.47;5053381;28;20094;-66
2021/01/22 09:40:17;;;;;;;11.23;7.15;;;;;;;11.16;48.17;98300.59;5052098;28;20182;-67
2021/01/22 09:42:44;;;;;;;13.75;6.97;;;;;;;11.17;48.07;98301.44;5059677;28;20068;-68
2021/01/22 09:45:12;;;;;;;11.50;6.88;;;;;;;11.04;48.22;98314.59;5058483;28;20065;-65
2021/01/22 09:47:38;;;;;;;11.52;6.93;;;;;;;10.94;48.59;98317.03;5053306;28;20132;-67
2021/01/22 09:50:07;;;;;;;12.73;7.68;;;;;;;10.91;48.64;98308.53;5051904;28;20148;-66
2021/01/22 09:52:36;;;;;;;11.30;7.18;;;;;;;10.69;49.07;98310.03;5053078;28;20124;-66
2021/01/22 09:55:02;;;;;;;11.38;6.72;;;;;;;10.60;49.37;98315.06;5052985;28;20064;-65
2021/01/22 09:57:28;;;;;;;14.60;8.52;;;;;;;10.57;49.49;98321.34;5052097;28;20041;-65
2021/01/22 09:59:55;;;;;;;13.00;8.15;;;;;;;10.57;49.25;98317.91;5053507;28;20128;-66
2021/01/22 10:02:21;;;;;;;10.65;7.63;;;;;;;10.51;49.31;98315.72;5053202;28;20049;-66
2021/01/22 10:04:47;;;;;;;12.80;7.57;;;;;;;10.54;49.35;98313.72;5052726;28;20427;-68
2021/01/22 10:07:13;;;;;;;13.23;7.32;;;;;;;10.47;49.49;98304.59;5052856;28;20053;-69
2021/01/22 10:09:41;;;;;;;13.13;7.07;;;;;;;10.47;49.56;98295.91;5053253;28;20380;-66
2021/01/22 10:12:08;;;;;;;13.77;7.97;;;;;;;10.52;49.53;98297.25;5052731;28;20049;-66
2021/01/22 10:14:35;;;;;;;12.55;7.95;;;;;;;10.54;49.48;98297.16;5042498;28;20049;-66
2021/01/22 10:17:01;;;;;;;11.60;7.32;;;;;;;10.41;49.77;98294.56;5038013;28;20132;-66
2021/01/22 10:19:28;;;;;;;12.93;7.85;;;;;;;10.44;49.77;98288.28;5040183;28;20044;-66
2021/01/22 10:21:54;;;;;;;11.63;7.15;;;;;;;10.49;49.70;98281.75;5036233;28;20524;-67
2021/01/22 10:24:20;;;;;;;16.92;8.43;;;;;;;10.51;49.60;98279.88;5041205;28;20087;-67
2021/01/22 10:26:49;;;;;;;11.70;6.90;;;;;;;10.44;49.88;98268.16;5039887;28;20094;-68
2021/01/22 10:29:16;;;;;;;14.45;7.70;;;;;;;10.39;50.14;98280.69;5044994;28;20095;-67
2021/01/22 10:31:42;;;;;;;11.50;8.15;;;;;;;10.33;50.25;98274.13;5043080;28;20042;-68
2021/01/22 10:34:08;;;;;;;14.27;8.43;;;;;;;10.38;50.21;98273.78;5036844;28;20044;-67
2021/01/22 10:36:34;;;;;;;19.27;9.73;;;;;;;10.45;50.28;98282.91;5047475;28;20132;-69
2021/01/22 10:39:01;;;;;;;21.30;11.15;;;;;;;10.39;50.48;98280.69;5051116;28;20052;-67
2021/01/22 10:41:27;;;;;;;19.20;9.07;;;;;;;10.33;50.63;98281.13;5051932;28;20164;-72
2021/01/22 10:43:54;;;;;;;18.10;9.90;;;;;;;10.27;51.37;98282.41;5051036;28;20186;-71
2021/01/22 10:46:20;;;;;;;19.27;10.02;;;;;;;10.26;51.35;98282.50;5052654;28;20056;-75
2021/01/22 10:48:46;;;;;;;20.25;9.98;;;;;;;10.21;51.54;98276.75;5052675;28;20514;-72
2021/01/22 10:51:13;;;;;;;19.05;12.02;;;;;;;10.15;51.85;98262.25;5052708;28;20140;-68
2021/01/22 10:53:39;;;;;;;19.05;11.18;;;;;;;10.18;51.86;98271.66;5053503;28;20053;-70
2021/01/22 10:56:06;;;;;;;18.02;9.35;;;;;;;10.20;51.50;98275.00;5053513;28;20080;-71
2021/01/22 10:58:32;;;;;;;21.67;9.57;;;;;;;10.22;51.87;98260.09;5053165;28;20126;-71
2021/01/22 11:00:59;;;;;;;18.83;10.38;;;;;;;10.30;51.90;98263.00;5053613;28;20059;-71
2021/01/22 11:03:27;;;;;;;14.38;9.10;;;;;;;10.33;51.73;98263.63;5053359;28;20049;-70
2021/01/22 11:05:53;;;;;;;15.98;9.73;;;;;;;10.38;51.85;98260.69;5053432;28;20403;-72
2021/01/22 11:08:20;;;;;;;13.63;9.40;;;;;;;10.52;52.41;98257.97;5052485;28;20110;-74
2021/01/22 11:10:46;;;;;;;14.98;9.00;;;;;;;10.82;51.44;98254.13;5055731;28;20488;-70
2021/01/22 11:13:13;;;;;;;16.25;9.73;;;;;;;10.97;50.97;98250.41;5051730;28;20488;-70
2021/01/22 11:15:39;;;;;;;19.58;10.98;;;;;;;11.06;50.83;98248.94;5051830;28;20057;-71
2021/01/22 11:18:06;;;;;;;22.30;11.48;;;;;;;11.16;50.57;98237.66;5054490;28;20045;-72
2021/01/22 11:20:32;;;;;;;18.75;10.80;;;;;;;11.36;50.13;98236.19;5065005;28;20076;-72
2021/01/22 11:22:58;;;;;;;16.92;11.43;;;;;;;11.49;49.91;98236.16;5059367;28;20053;-71
2021/01/22 11:25:24;;;;;;;21.25;11.45;;;;;;;11.53;49.75;98238.44;5053202;28;20080;-73
2021/01/22 11:27:51;;;;;;;15.48;10.27;;;;;;;11.60;49.56;98233.56;5053383;28;20051;-72
2021/01/22 11:30:18;;;;;;;19.63;11.82;;;;;;;11.64;49.56;98237.63;5052656;28;20057;-72
2021/01/22 11:32:44;;;;;;;18.17;11.40;;;;;;;11.70;49.45;98236.34;5051705;28;20128;-72
2021/01/22 11:35:12;;;;;;;19.58;10.23;;;;;;;11.76;49.30;98238.50;5052509;28;20140;-72
2021/01/22 11:37:47;;;;;;;18.17;11.48;;;;;;;11.66;49.73;98240.13;5051696;28;20488;-74
2021/01/22 11:40:14;;;;;;;21.60;11.63;;;;;;;11.59;49.62;98237.13;5052551;28;20511;-72
2021/01/22 11:42:41;;;;;;;25.95;12.32;;;;;;;11.58;49.65;98231.03;5052822;28;20135;-71
2021/01/22 11:45:08;;;;;;;24.30;14.07;;;;;;;11.61;49.61;98235.22;5051249;28;20125;-72
2021/01/22 11:47:34;;;;;;;19.88;11.18;;;;;;;11.51;49.75;98229.84;5050710;28;20049;-72
2021/01/22 11:50:01;;;;;;;21.55;12.18;;;;;;;11.54;49.72;98234.84;5050612;28;20045;-72
2021/01/22 11:52:28;;;;;;;22.10;12.77;;;;;;;11.57;49.73;98226.75;5051056;28;20045;-72
2021/01/22 11:54:54;;;;;;;23.15;13.18;;;;;;;11.66;49.55;98233.13;5050844;28;20041;-71